Time;durP1;ratioP1;P1;durP2;ratioP2;P2;SDS_P1;SDS_P2;PMS_P1;PMS_P2;Temp;Humidity;BMP_temperature;BMP_pressure;BME280_temperature;BME280_humidity;BME280_pressure;Samples;Min_cycle;Max_cycle;Signal;HPM_P1;HPM_P2
2022/08/11 00:01:53;;;;;;;11.95;4.85;;;18.50;99.90;;;;;;5094986;28;20487;-65
2022/08/11 00:04:22;;;;;;;9.57;4.80;;;18.50;99.90;;;;;;5095503;28;20051;-64
2022/08/11 00:06:49;;;;;;;10.23;5.03;;;18.50;99.90;;;;;;5112050;28;20062;-64
2022/08/11 00:09:18;;;;;;;10.07;5.47;;;18.50;99.90;;;;;;5095228;28;20065;-65
2022/08/11 00:11:50;;;;;;;10.20;5.82;;;18.40;99.90;;;;;;5094998;28;20056;-65
2022/08/11 00:14:21;;;;;;;8.40;5.07;;;18.40;99.90;;;;;;5112086;28;20054;-64
2022/08/11 00:17:06;;;;;;;9.15;4.90;;;18.40;99.90;;;;;;5094811;28;20441;-65
2022/08/11 00:19:35;;;;;;;9.43;5.18;;;18.50;99.90;;;;;;5091150;28;20395;-64
2022/08/11 00:22:22;;;;;;;10.00;5.40;;;18.40;99.90;;;;;;5091727;28;20044;-64
2022/08/11 00:24:49;;;;;;;8.77;5.63;;;18.40;99.90;;;;;;5074746;28;20446;-64
2022/08/11 00:27:34;;;;;;;11.75;5.95;;;18.40;99.90;;;;;;5076988;28;20052;-65
2022/08/11 00:30:03;;;;;;;12.82;4.85;;;18.40;99.90;;;;;;5111409;28;20044;-65
2022/08/11 00:32:30;;;;;;;7.10;5.20;;;18.30;99.90;;;;;;5094889;28;20053;-65
2022/08/11 00:34:57;;;;;;;9.10;5.55;;;18.30;99.90;;;;;;5094773;28;20062;-64
2022/08/11 00:37:48;;;;;;;7.63;4.97;;;18.20;99.90;;;;;;5091335;28;20474;-64
2022/08/11 00:40:19;;;;;;;7.65;4.95;;;18.20;99.90;;;;;;5075138;28;20048;-64
2022/08/11 00:43:42;;;;;;;7.22;5.05;;;18.20;99.90;;;;;;5074615;28;20510;-64
2022/08/11 00:46:39;;;;;;;11.30;5.05;;;18.10;99.90;;;;;;5048463;28;20112;-64
2022/08/11 00:49:39;;;;;;;12.85;6.35;;;18.00;99.90;;;;;;5106693;28;20059;-64
2022/08/11 00:52:36;;;;;;;9.30;5.25;;;17.90;99.90;;;;;;5110985;28;20048;-64
2022/08/11 00:55:26;;;;;;;8.05;4.78;;;17.90;99.90;;;;;;5111284;28;20138;-66
2022/08/11 00:58:11;;;;;;;6.53;4.18;;;17.80;99.90;;;;;;5110930;28;20096;-66
2022/08/11 01:01:05;;;;;;;8.02;5.40;;;17.80;99.90;;;;;;5114416;28;20051;-66
2022/08/11 01:03:41;;;;;;;6.93;5.18;;;17.70;99.90;;;;;;5104949;28;20048;-64
2022/08/11 01:06:14;;;;;;;7.05;5.55;;;17.60;99.90;;;;;;5115227;28;20054;-66
2022/08/11 01:08:56;;;;;;;9.80;5.22;;;17.50;99.90;;;;;;5116531;28;20393;-64
2022/08/11 01:11:55;;;;;;;8.50;4.78;;;17.50;99.90;;;;;;5116755;28;20043;-65
2022/08/11 01:14:34;;;;;;;7.18;4.47;;;17.50;99.90;;;;;;5098352;28;20048;-64
2022/08/11 01:17:04;;;;;;;7.70;4.97;;;17.40;99.90;;;;;;5115957;28;20500;-65
2022/08/11 01:19:56;;;;;;;10.38;5.88;;;17.40;99.90;;;;;;5115137;28;20051;-65
2022/08/11 01:23:30;;;;;;;8.82;4.88;;;17.40;99.90;;;;;;5116497;28;20104;-66
2022/08/11 01:26:19;;;;;;;7.25;4.97;;;17.40;99.90;;;;;;5061233;27;20044;-66
2022/08/11 01:29:25;;;;;;;9.35;5.25;;;17.50;99.90;;;;;;5114574;28;20441;-66
2022/08/11 01:31:55;;;;;;;9.48;5.60;;;17.40;99.90;;;;;;5100768;28;20483;-66
2022/08/11 01:34:26;;;;;;;6.53;5.50;;;17.40;99.90;;;;;;5116268;28;20043;-66
2022/08/11 01:37:30;;;;;;;9.35;4.63;;;17.30;99.90;;;;;;5109706;28;20048;-66
2022/08/11 01:40:09;;;;;;;8.68;5.22;;;17.30;99.90;;;;;;5115126;28;20052;-70
2022/08/11 01:46:21;;;;;;;10.38;5.35;;;17.30;99.90;;;;;;5114719;28;20059;-66
2022/08/11 01:49:02;;;;;;;10.77;5.10;;;17.30;99.90;;;;;;5116045;28;20051;-65
2022/08/11 01:52:14;;;;;;;5.70;4.80;;;17.20;99.90;;;;;;5114677;28;20140;-66
2022/08/11 01:54:53;;;;;;;6.50;4.93;;;17.10;99.90;;;;;;5097961;28;20048;-66
2022/08/11 01:57:28;;;;;;;8.70;4.75;;;17.00;99.90;;;;;;5115274;27;20059;-66
2022/08/11 02:00:08;;;;;;;7.93;5.03;;;16.90;99.90;;;;;;5114611;28;20475;-66
2022/08/11 02:03:24;;;;;;;10.77;4.75;;;16.90;99.90;;;;;;5113917;28;20055;-66
2022/08/11 02:09:05;;;;;;;8.90;5.78;;;16.80;99.90;;;;;;5114821;28;20437;-66
2022/08/11 02:11:32;;;;;;;9.43;5.93;;;16.70;99.90;;;;;;5112925;28;20049;-65
2022/08/11 02:14:33;;;;;;;9.70;5.30;;;16.70;99.90;;;;;;5098070;28;20437;-65
2022/08/11 02:17:10;;;;;;;7.05;4.95;;;16.70;99.90;;;;;;5099068;28;20047;-66
2022/08/11 02:26:42;;;;;;;8.35;4.90;;;16.50;99.90;;;;;;5084160;28;20086;-67
2022/08/11 02:29:19;;;;;;;9.27;4.95;;;16.50;99.90;;;;;;5110569;28;20139;-67
2022/08/11 02:35:01;;;;;;;9.23;5.28;;;16.50;99.90;;;;;;5114848;28;20055;-67
2022/08/11 02:37:31;;;;;;;10.13;5.57;;;16.40;99.90;;;;;;5103389;28;20048;-66
2022/08/11 02:39:58;;;;;;;8.95;5.10;;;16.40;99.90;;;;;;5094143;28;20048;-65
2022/08/11 02:42:51;;;;;;;8.82;5.72;;;16.30;99.90;;;;;;5093071;28;20101;-65
2022/08/11 02:45:45;;;;;;;8.57;5.57;;;16.30;99.90;;;;;;5088884;28;20048;-65
2022/08/11 02:51:41;;;;;;;9.13;5.45;;;16.20;99.90;;;;;;5039484;28;20052;-66
2022/08/11 02:54:26;;;;;;;10.07;5.55;;;16.20;99.90;;;;;;5101786;28;20040;-65
2022/08/11 02:56:55;;;;;;;9.13;6.35;;;16.20;99.90;;;;;;5096490;28;20055;-66
2022/08/11 02:59:51;;;;;;;8.27;5.55;;;16.10;99.90;;;;;;5105887;28;20403;-66
2022/08/11 03:02:31;;;;;;;11.52;6.25;;;16.10;99.90;;;;;;5094103;28;20046;-65
2022/08/11 03:05:07;;;;;;;9.45;5.85;;;16.10;99.90;;;;;;5093715;28;20040;-66
2022/08/11 03:07:51;;;;;;;9.75;5.97;;;16.10;99.90;;;;;;5092347;28;20497;-66
2022/08/11 03:10:31;;;;;;;8.50;5.82;;;16.10;99.90;;;;;;5078180;28;20040;-65
2022/08/11 03:19:17;;;;;;;7.20;6.15;;;16.10;99.90;;;;;;5111295;28;20479;-67
2022/08/11 03:22:22;;;;;;;7.47;5.03;;;16.00;99.90;;;;;;5112234;28;20051;-65
2022/08/11 03:25:02;;;;;;;12.30;6.60;;;16.00;99.90;;;;;;5112376;28;20118;-66
2022/08/11 03:27:53;;;;;;;8.30;6.43;;;16.00;99.90;;;;;;5113670;28;20066;-66
2022/08/11 03:30:44;;;;;;;10.57;5.60;;;15.90;99.90;;;;;;5092033;28;20044;-65
2022/08/11 03:36:36;;;;;;;9.13;5.88;;;15.90;99.90;;;;;;5091843;28;20499;-65
2022/08/11 03:39:31;;;;;;;6.35;4.85;;;15.90;99.90;;;;;;5092739;28;20044;-65
2022/08/11 03:42:17;;;;;;;6.63;4.80;;;15.90;99.90;;;;;;5093498;28;20105;-65
2022/08/11 03:45:06;;;;;;;6.63;4.57;;;15.80;99.90;;;;;;5108271;28;20126;-66
2022/08/11 03:47:54;;;;;;;5.63;4.35;;;15.90;99.90;;;;;;5112310;28;20368;-65
2022/08/11 03:50:40;;;;;;;7.55;5.40;;;15.80;99.90;;;;;;5113234;28;20097;-66
2022/08/11 03:53:36;;;;;;;5.03;4.20;;;15.70;99.90;;;;;;5112998;28;20406;-67
2022/08/11 03:56:10;;;;;;;5.97;4.35;;;15.70;99.90;;;;;;5112430;28;20047;-66
2022/08/11 03:59:16;;;;;;;5.97;4.38;;;15.70;99.90;;;;;;5109508;28;20051;-65
2022/08/11 04:02:04;;;;;;;6.57;4.00;;;15.70;99.90;;;;;;5091407;28;20403;-65
2022/08/11 04:04:53;;;;;;;4.55;4.10;;;15.70;99.90;;;;;;5091321;28;20044;-65
2022/08/11 04:07:42;;;;;;;7.78;4.70;;;15.70;99.90;;;;;;5091266;28;20052;-66
2022/08/11 04:10:54;;;;;;;6.07;4.20;;;15.70;99.90;;;;;;5092824;28;20051;-65
2022/08/11 04:13:43;;;;;;;8.23;4.57;;;15.80;99.90;;;;;;5057081;28;20052;-65
2022/08/11 04:17:04;;;;;;;8.30;4.85;;;15.80;99.90;;;;;;5090874;28;20052;-65
2022/08/11 04:19:49;;;;;;;6.20;4.88;;;15.80;99.90;;;;;;5010119;28;20049;-66
2022/08/11 04:22:37;;;;;;;8.18;5.15;;;15.90;99.90;;;;;;5091117;28;20051;-65
2022/08/11 04:25:35;;;;;;;5.90;4.25;;;15.80;99.90;;;;;;5091251;28;20075;-65
2022/08/11 04:28:40;;;;;;;6.80;5.15;;;15.90;99.90;;;;;;5071769;28;20097;-66
2022/08/11 04:31:29;;;;;;;7.88;4.80;;;15.90;99.90;;;;;;5112787;28;20406;-66
2022/08/11 04:34:34;;;;;;;7.18;5.00;;;15.90;99.90;;;;;;5111441;28;20048;-65
2022/08/11 04:40:35;;;;;;;7.97;4.93;;;16.00;99.90;;;;;;5091564;28;20052;-65
2022/08/11 04:43:26;;;;;;;6.53;5.13;;;16.00;99.90;;;;;;5010259;28;20068;-66
2022/08/11 04:46:12;;;;;;;8.20;5.28;;;16.00;99.90;;;;;;5068643;28;20160;-65
2022/08/11 05:01:42;;;;;;;6.68;5.30;;;16.00;99.90;;;;;;5090596;28;20048;-66
2022/08/11 05:07:28;;;;;;;9.40;6.15;;;16.00;99.90;;;;;;5092070;28;20103;-63
2022/08/11 05:10:10;;;;;;;21.92;9.48;;;16.10;99.90;;;;;;5091722;28;20069;-63
2022/08/11 05:12:50;;;;;;;22.20;8.52;;;16.10;99.90;;;;;;5091904;28;20048;-63
2022/08/11 05:35:45;;;;;;;12.25;6.53;;;16.90;99.90;;;;;;5098477;28;20047;-63
2022/08/11 05:58:04;;;;;;;11.15;6.85;;;17.80;99.90;;;;;;5087029;28;20074;-64
2022/08/11 06:00:31;;;;;;;15.00;7.60;;;17.90;99.90;;;;;;5095915;28;20044;-64
2022/08/11 06:03:00;;;;;;;13.60;7.88;;;18.10;99.90;;;;;;5094859;28;20052;-63
2022/08/11 06:05:33;;;;;;;10.57;7.88;;;18.10;99.90;;;;;;5060775;28;20087;-66
2022/08/11 06:08:09;;;;;;;11.70;7.82;;;18.20;99.90;;;;;;5093419;28;20048;-64
2022/08/11 06:10:37;;;;;;;10.05;8.52;;;18.30;99.90;;;;;;5077519;28;20068;-64
2022/08/11 06:13:05;;;;;;;12.55;7.75;;;18.40;99.90;;;;;;5077362;28;20055;-64
2022/08/11 06:15:35;;;;;;;12.98;8.35;;;18.50;99.90;;;;;;5076889;28;20044;-64
2022/08/11 06:18:02;;;;;;;14.88;7.72;;;18.60;99.90;;;;;;5085693;28;20154;-64
2022/08/11 06:20:36;;;;;;;11.32;8.18;;;18.70;99.90;;;;;;5113751;28;20054;-64
2022/08/11 06:23:05;;;;;;;20.75;10.85;;;18.80;99.90;;;;;;5113731;28;20040;-70
2022/08/11 06:25:34;;;;;;;14.88;10.10;;;19.00;99.90;;;;;;5113770;28;20483;-63
2022/08/11 06:28:05;;;;;;;21.10;12.13;;;19.10;99.90;;;;;;5113981;28;20066;-63
2022/08/11 06:30:33;;;;;;;25.15;13.70;;;19.10;99.90;;;;;;5113600;28;20392;-64
2022/08/11 06:33:00;;;;;;;27.57;13.90;;;19.20;99.90;;;;;;5114777;28;20051;-64
2022/08/11 06:35:53;;;;;;;25.48;14.38;;;19.30;99.90;;;;;;5096933;28;20318;-64
2022/08/11 06:38:46;;;;;;;27.02;15.40;;;19.40;99.90;;;;;;5094823;28;20399;-64
2022/08/11 06:41:30;;;;;;;23.95;15.73;;;19.40;99.90;;;;;;5050023;28;20055;-64
2022/08/11 06:44:10;;;;;;;29.48;15.57;;;19.50;99.90;;;;;;5093182;28;20044;-64
2022/08/11 06:46:38;;;;;;;25.05;14.07;;;19.40;99.90;;;;;;5094245;28;20048;-64
2022/08/11 06:51:10;;;;;;;24.05;15.90;;;19.40;99.90;;;;;;5077354;28;20040;-64
2022/08/11 06:52:00;;;;;;;24.60;13.32;;;19.40;99.90;;;;;;5113503;28;20043;-65
2022/08/11 06:54:34;;;;;;;24.95;14.35;;;19.50;99.90;;;;;;5112994;28;20036;-65
2022/08/11 07:03:09;;;;;;;24.45;15.02;;;19.50;99.90;;;;;;5092847;28;20047;-65
2022/08/11 07:05:36;;;;;;;30.50;14.73;;;19.60;99.90;;;;;;5076756;28;20044;-64
2022/08/11 07:17:21;;;;;;;31.65;14.60;;;19.70;99.90;;;;;;5076815;28;20055;-64
2022/08/11 07:31:12;;;;;;;20.25;11.02;;;20.40;99.90;;;;;;5112585;28;20135;-63
2022/08/11 07:33:49;;;;;;;20.38;12.60;;;20.50;99.90;;;;;;5079099;28;20093;-63
2022/08/11 07:36:37;;;;;;;21.13;12.90;;;20.60;99.90;;;;;;5095899;28;20503;-63
2022/08/11 07:39:04;;;;;;;23.05;14.10;;;20.60;99.90;;;;;;5075312;28;20097;-64
2022/08/11 07:41:33;;;;;;;19.67;13.02;;;20.60;99.90;;;;;;5058996;28;20066;-64
2022/08/11 07:44:07;;;;;;;19.75;13.20;;;20.60;99.90;;;;;;5075484;28;20407;-63
2022/08/11 07:52:32;;;;;;;22.23;15.50;;;20.50;99.90;;;;;;5092003;28;20048;-64
2022/08/11 07:55:14;;;;;;;23.67;14.57;;;20.60;99.90;;;;;;5099547;28;20444;-63
2022/08/11 08:17:51;;;;;;;21.55;14.10;;;21.40;99.90;;;;;;5082090;28;20043;-63
2022/08/11 08:20:44;;;;;;;22.20;13.73;;;21.60;99.90;;;;;;5112161;28;20066;-63
2022/08/11 08:23:11;;;;;;;24.58;13.57;;;21.70;99.90;;;;;;5111891;28;20593;-64
2022/08/11 08:25:39;;;;;;;22.00;12.68;;;21.60;99.90;;;;;;5113045;28;20052;-64
2022/08/11 08:28:12;;;;;;;28.83;12.57;;;21.60;99.90;;;;;;5111537;28;20132;-65
2022/08/11 08:30:55;;;;;;;27.88;13.82;;;21.60;99.90;;;;;;5111405;28;20040;-65
2022/08/11 08:33:23;;;;;;;21.45;13.18;;;21.70;99.90;;;;;;5082243;28;20406;-64
2022/08/11 08:36:10;;;;;;;23.88;14.38;;;21.80;99.90;;;;;;5078541;28;20463;-64
2022/08/11 08:38:48;;;;;;;19.08;12.90;;;21.80;99.90;;;;;;5076056;28;20171;-64
2022/08/11 08:41:23;;;;;;;22.20;13.73;;;21.90;99.90;;;;;;5091198;28;20048;-64
2022/08/11 08:43:52;;;;;;;27.90;15.70;;;21.90;99.90;;;;;;5091037;28;20047;-64
2022/08/11 08:46:26;;;;;;;24.27;15.55;;;22.00;99.90;;;;;;5090852;28;20052;-64
2022/08/11 08:48:53;;;;;;;24.77;14.57;;;22.00;99.90;;;;;;5090053;28;20402;-64
2022/08/11 08:51:33;;;;;;;23.10;14.27;;;22.00;99.90;;;;;;5111456;28;20047;-64
2022/08/11 08:54:25;;;;;;;23.33;14.70;;;22.10;99.90;;;;;;5111314;28;20048;-64
2022/08/11 08:56:54;;;;;;;22.60;15.18;;;22.20;99.90;;;;;;5094553;28;20394;-64
2022/08/11 08:59:22;;;;;;;27.17;15.40;;;22.20;99.90;;;;;;5102446;28;20044;-64
2022/08/11 09:01:57;;;;;;;21.73;13.80;;;22.30;99.90;;;;;;5090986;28;20059;-64
2022/08/11 09:04:24;;;;;;;19.98;13.73;;;22.30;99.90;;;;;;5091481;28;20276;-64
2022/08/11 09:06:52;;;;;;;20.95;13.30;;;22.30;99.90;;;;;;5074643;28;20095;-64
2022/08/11 09:09:19;;;;;;;19.00;12.80;;;22.40;99.90;;;;;;5074594;28;20127;-64
2022/08/11 09:11:49;;;;;;;13.82;10.40;;;22.40;99.90;;;;;;5074752;28;20076;-65
2022/08/11 09:14:17;;;;;;;14.88;10.27;;;22.50;99.90;;;;;;5074804;28;20052;-64
2022/08/11 09:16:44;;;;;;;14.75;9.65;;;22.60;99.90;;;;;;5089164;28;20040;-64
2022/08/11 09:19:13;;;;;;;18.23;11.20;;;22.70;99.90;;;;;;5094222;28;20040;-65
2022/08/11 09:21:40;;;;;;;;;;;22.90;99.90;;;;;;5114446;28;20059;-63
2022/08/11 09:27:06;;;;;;;21.58;12.23;;;23.00;99.90;;;;;;5081342;28;20060;-64
2022/08/11 09:29:33;;;;;;;18.75;11.55;;;23.10;99.90;;;;;;5094429;28;20059;-66
2022/08/11 09:32:00;;;;;;;17.02;10.55;;;23.20;99.90;;;;;;5095341;28;20488;-64
2022/08/11 09:34:27;;;;;;;16.17;11.63;;;23.20;99.90;;;;;;5111394;28;20058;-64
2022/08/11 09:45:30;;;;;;;17.42;11.32;;;23.50;99.90;;;;;;5100711;28;20048;-64
2022/08/11 09:48:06;;;;;;;15.73;10.18;;;23.60;99.90;;;;;;5099104;28;20054;-64
2022/08/11 09:50:33;;;;;;;13.73;9.63;;;23.60;99.90;;;;;;5114700;28;20399;-64
2022/08/11 09:53:04;;;;;;;19.63;10.30;;;23.90;99.90;;;;;;5097213;28;20055;-64
2022/08/11 09:55:51;;;;;;;14.90;9.63;;;24.00;99.90;;;;;;5114332;28;20122;-64
2022/08/11 09:58:18;;;;;;;10.75;9.25;;;24.00;99.90;;;;;;5097722;28;20044;-64
2022/08/11 10:01:06;;;;;;;12.70;7.68;;;24.20;99.90;;;;;;5094284;28;20044;-65
2022/08/11 10:03:33;;;;;;;15.25;6.80;;;24.30;99.90;;;;;;5110716;28;20051;-64
2022/08/11 10:09:01;;;;;;;8.63;6.78;;;24.50;99.90;;;;;;5106753;28;20523;-64
2022/08/11 10:11:28;;;;;;;10.48;6.15;;;24.70;99.90;;;;;;5110508;28;20462;-64
2022/08/11 10:17:03;;;;;;;13.15;6.70;;;24.90;99.90;;;;;;5113194;28;20047;-64
2022/08/11 10:19:30;;;;;;;12.63;6.55;;;25.00;99.90;;;;;;5076696;28;20136;-64
2022/08/11 10:27:27;;;;;;;8.05;5.45;;;25.10;99.90;;;;;;5096091;28;20043;-64
2022/08/11 10:36:05;;;;;;;7.30;5.28;;;25.50;99.90;;;;;;5114399;28;20067;-64
2022/08/11 10:38:44;;;;;;;11.18;5.20;;;25.60;99.90;;;;;;5098308;28;20055;-64
2022/08/11 10:43:57;;;;;;;8.65;4.22;;;25.70;99.90;;;;;;5113929;28;20509;-64
2022/08/11 10:49:15;;;;;;;13.00;4.38;;;25.90;99.90;;;;;;5113591;28;20051;-64
2022/08/11 10:59:59;;;;;;;13.45;5.70;;;26.50;99.90;;;;;;5099554;28;20086;-64
2022/08/11 11:02:26;;;;;;;9.43;3.80;;;26.70;99.90;;;;;;5092323;28;20052;-65
2022/08/11 11:05:02;;;;;;;11.68;3.60;;;26.80;99.90;;;;;;5059532;28;20087;-64
2022/08/11 11:07:38;;;;;;;12.98;4.35;;;26.80;97.60;;;;;;5079760;28;20047;-64
2022/08/11 11:10:10;;;;;;;7.82;3.72;;;26.90;98.00;;;;;;5093495;28;20085;-64
2022/08/11 11:18:40;;;;;;;10.55;3.17;;;27.10;93.00;;;;;;5106306;28;20104;-64
2022/08/11 11:21:09;;;;;;;8.18;3.55;;;27.20;93.50;;;;;;5112575;28;20058;-64
2022/08/11 11:23:46;;;;;;;;;;;27.30;91.80;;;;;;5096387;28;20055;-64
2022/08/11 11:26:35;;;;;;;5.25;2.92;;;27.30;88.40;;;;;;5098505;28;19924;-64
2022/08/11 11:29:26;;;;;;;4.07;2.80;;;27.40;83.80;;;;;;5109539;28;20059;-65
2022/08/11 11:32:08;;;;;;;8.07;3.10;;;27.50;81.30;;;;;;5112497;28;20044;-64
2022/08/11 11:34:53;;;;;;;6.75;2.55;;;27.60;82.30;;;;;;5112538;28;20050;-64
2022/08/11 11:37:24;;;;;;;7.03;2.65;;;27.60;80.80;;;;;;5080052;28;20488;-64
2022/08/11 11:39:52;;;;;;;7.78;3.45;;;27.70;80.50;;;;;;5095690;28;20084;-64
2022/08/11 11:42:19;;;;;;;7.15;2.65;;;27.70;78.00;;;;;;5112250;28;20099;-64
2022/08/11 11:44:46;;;;;;;9.35;2.78;;;27.80;80.50;;;;;;5078807;28;20051;-65
2022/08/11 11:47:13;;;;;;;9.05;3.15;;;27.90;79.50;;;;;;5113138;28;20554;-64
2022/08/11 11:49:42;;;;;;;3.83;2.53;;;28.00;79.30;;;;;;5112492;28;20047;-64
2022/08/11 11:52:17;;;;;;;4.32;2.67;;;28.00;77.80;;;;;;5095516;28;20044;-64
2022/08/11 11:54:49;;;;;;;8.90;3.30;;;28.10;75.90;;;;;;5111832;28;20059;-65
2022/08/11 12:03:04;;;;;;;9.85;2.85;;;28.30;71.20;;;;;;5099285;28;20126;-64
2022/08/11 12:05:33;;;;;;;4.70;1.80;;;28.40;71.50;;;;;;5095953;28;20047;-64
2022/08/11 12:08:13;;;;;;;;;;;28.50;69.80;;;;;;5095751;28;20043;-65
2022/08/11 12:10:47;;;;;;;5.28;2.38;;;28.50;67.50;;;;;;5112894;27;19920;-65
2022/08/11 12:16:02;;;;;;;5.35;2.30;;;28.50;69.60;;;;;;5112302;28;20383;-64
2022/08/11 12:18:51;;;;;;;12.85;2.47;;;28.60;69.80;;;;;;5111949;28;20055;-64
2022/08/11 12:21:19;;;;;;;3.53;1.90;;;28.70;69.60;;;;;;5111744;28;20407;-65
2022/08/11 12:29:39;;;;;;;10.05;2.30;;;28.90;65.50;;;;;;5111938;28;20043;-64
2022/08/11 12:32:09;;;;;;;5.22;2.33;;;29.00;66.30;;;;;;5079393;28;20108;-64
2022/08/11 12:34:36;;;;;;;7.47;2.83;;;29.10;65.80;;;;;;5094705;28;20054;-64
2022/08/11 12:37:11;;;;;;;5.05;2.38;;;29.20;66.30;;;;;;5111472;28;20044;-69
2022/08/11 12:45:57;;;;;;;5.78;2.00;;;29.50;63.40;;;;;;5112054;28;20104;-65
2022/08/11 12:54:58;;;;;;;3.33;1.80;;;29.50;60.10;;;;;;5111188;28;20051;-64
2022/08/11 13:05:56;;;;;;;3.38;1.90;;;29.50;59.50;;;;;;5115921;28;20040;-64
2022/08/11 13:08:23;;;;;;;;;;;29.60;59.30;;;;;;5099077;28;20051;-72
2022/08/11 13:13:38;;;;;;;7.68;3.25;;;29.50;60.60;;;;;;5101445;28;20479;-64
2022/08/11 13:16:28;;;;;;;5.43;2.25;;;29.60;61.50;;;;;;5115740;28;20105;-66
2022/08/11 13:18:59;;;;;;;3.97;2.28;;;29.60;61.30;;;;;;5098601;28;20425;-66
2022/08/11 13:21:27;;;;;;;4.97;2.10;;;29.60;62.30;;;;;;5114991;28;20518;-64
2022/08/11 13:23:55;;;;;;;7.60;2.50;;;29.50;62.10;;;;;;5114428;28;20058;-65
2022/08/11 13:26:31;;;;;;;6.45;2.08;;;29.60;61.90;;;;;;5112670;28;20498;-64
2022/08/11 13:29:23;;;;;;;4.50;2.05;;;29.60;60.40;;;;;;5094574;28;20048;-64
2022/08/11 13:31:51;;;;;;;7.35;2.15;;;29.70;60.70;;;;;;5078379;28;20055;-64
2022/08/11 13:34:18;;;;;;;7.13;3.50;;;29.60;60.80;;;;;;5077709;28;20048;-64
2022/08/11 13:36:50;;;;;;;5.77;2.30;;;29.60;61.50;;;;;;5078056;28;20048;-64
2022/08/11 13:39:19;;;;;;;6.00;2.42;;;29.70;60.70;;;;;;5061396;28;20475;-64
2022/08/11 13:41:49;;;;;;;11.55;2.78;;;29.70;60.60;;;;;;5078066;28;20062;-64
2022/08/11 13:44:16;;;;;;;5.30;2.28;;;29.70;60.40;;;;;;5094455;28;20134;-64
2022/08/11 13:46:50;;;;;;;5.32;2.10;;;29.70;60.30;;;;;;5078609;28;20090;-65
2022/08/11 13:49:19;;;;;;;8.75;3.20;;;29.70;59.50;;;;;;5096758;28;20044;-64
2022/08/11 13:51:46;;;;;;;9.50;2.28;;;29.60;59.10;;;;;;5097513;28;20383;-67
2022/08/11 13:54:17;;;;;;;4.07;2.42;;;29.70;58.60;;;;;;5113959;28;20063;-65
2022/08/11 13:56:45;;;;;;;3.85;2.08;;;29.60;57.30;;;;;;5097610;28;20056;-65
2022/08/11 13:59:13;;;;;;;2.50;1.88;;;29.70;57.70;;;;;;5107683;28;20377;-64
2022/08/11 14:01:43;;;;;;;7.63;2.10;;;29.70;58.10;;;;;;5077206;28;20055;-65
2022/08/11 14:04:58;;;;;;;5.43;2.10;;;29.70;57.10;;;;;;5093565;28;20096;-64
2022/08/11 14:07:28;;;;;;;5.07;2.20;;;29.60;56.50;;;;;;5093318;28;20052;-65
2022/08/11 14:09:57;;;;;;;2.28;1.58;;;29.60;57.70;;;;;;5077674;28;20055;-65
2022/08/11 14:15:28;;;;;;;7.07;2.45;;;29.60;56.40;;;;;;5093813;28;19931;-66
2022/08/11 14:18:00;;;;;;;3.72;1.70;;;29.60;57.10;;;;;;5086064;28;20057;-64
2022/08/11 14:22:05;;;;;;;5.38;1.98;;;29.70;56.00;;;;;;5114007;28;20047;-65
2022/08/11 14:23:14;;;;;;;4.85;2.05;;;29.80;56.20;;;;;;5114037;28;20054;-64
2022/08/11 14:26:22;;;;;;;3.08;1.60;;;29.80;55.40;;;;;;5114019;28;20067;-64
2022/08/11 14:28:31;;;;;;;4.95;1.80;;;29.80;56.20;;;;;;5113716;28;20079;-64
2022/08/11 14:31:06;;;;;;;5.53;1.98;;;29.70;56.40;;;;;;5082698;28;20047;-65
2022/08/11 14:33:33;;;;;;;7.03;2.70;;;29.80;56.10;;;;;;5096539;28;20047;-65
2022/08/11 14:36:23;;;;;;;5.55;2.58;;;29.80;56.50;;;;;;5113790;28;20043;-64
2022/08/11 14:38:52;;;;;;;3.42;1.65;;;29.80;56.00;;;;;;5113523;28;20528;-65
2022/08/11 14:47:13;;;;;;;4.90;2.75;;;29.60;56.70;;;;;;5113956;28;20058;-64
2022/08/11 14:49:52;;;;;;;7.63;2.63;;;29.60;56.20;;;;;;5113743;28;20055;-65
2022/08/11 14:52:37;;;;;;;3.53;2.60;;;29.60;56.60;;;;;;5113319;28;20054;-64
2022/08/11 14:57:51;;;;;;;10.60;2.88;;;29.70;56.50;;;;;;5114229;28;20100;-65
2022/08/11 15:00:31;;;;;;;5.25;2.65;;;29.80;56.30;;;;;;5095404;28;20051;-64
2022/08/11 15:03:10;;;;;;;13.57;3.13;;;29.80;57.00;;;;;;5075873;28;20044;-65
2022/08/11 15:05:47;;;;;;;3.58;2.00;;;29.80;56.50;;;;;;5062960;28;20102;-66
2022/08/11 15:14:02;;;;;;;4.35;2.00;;;29.80;56.10;;;;;;5113358;28;20130;-65
2022/08/11 15:19:15;;;;;;;5.35;2.00;;;29.70;55.60;;;;;;5112523;28;20051;-64
2022/08/11 15:24:29;;;;;;;5.32;2.70;;;29.60;54.80;;;;;;5102101;28;20051;-65
2022/08/11 15:38:05;;;;;;;6.82;2.40;;;29.30;55.30;;;;;;5099161;28;20159;-65
2022/08/11 15:46:21;;;;;;;5.20;2.00;;;29.40;55.60;;;;;;5113218;28;20054;-65
2022/08/11 15:48:55;;;;;;;6.70;2.38;;;29.50;54.70;;;;;;5078679;28;20053;-65
2022/08/11 15:51:42;;;;;;;4.57;2.25;;;29.50;55.40;;;;;;5095317;28;20502;-71
2022/08/11 15:54:12;;;;;;;5.20;2.15;;;29.50;55.20;;;;;;5095242;28;20055;-67
2022/08/11 15:56:40;;;;;;;6.40;3.10;;;29.40;55.20;;;;;;5112405;28;20044;-65
2022/08/11 16:04:57;;;;;;;8.23;2.17;;;29.20;55.40;;;;;;5083343;28;20051;-66
2022/08/11 16:07:26;;;;;;;7.47;2.40;;;29.20;55.50;;;;;;5095352;28;20063;-65
2022/08/11 16:10:06;;;;;;;4.60;2.72;;;29.30;54.60;;;;;;5095215;28;20429;-65
2022/08/11 16:12:38;;;;;;;5.25;2.65;;;29.30;53.60;;;;;;5112368;28;20052;-65
2022/08/11 16:17:58;;;;;;;5.30;3.35;;;29.20;54.60;;;;;;5111972;28;20490;-65
2022/08/11 16:20:26;;;;;;;4.22;2.65;;;29.20;53.50;;;;;;5095001;28;20040;-65
2022/08/11 16:22:56;;;;;;;7.63;2.28;;;29.20;54.00;;;;;;5094883;28;20543;-64
2022/08/11 16:25:28;;;;;;;5.10;2.75;;;29.10;53.40;;;;;;5112069;28;20055;-64
2022/08/11 16:28:15;;;;;;;5.72;1.92;;;29.10;53.60;;;;;;5098021;28;20479;-64
2022/08/11 16:30:45;;;;;;;2.65;2.00;;;29.00;54.30;;;;;;5110849;28;20051;-66
2022/08/11 16:33:12;;;;;;;3.33;2.10;;;29.00;54.80;;;;;;5095161;28;20477;-65
2022/08/11 16:38:44;;;;;;;3.75;2.30;;;29.10;54.20;;;;;;5112035;28;20043;-65
2022/08/11 16:41:12;;;;;;;5.40;2.38;;;29.10;54.90;;;;;;5094797;28;20066;-65
2022/08/11 16:49:17;;;;;;;3.58;2.30;;;29.10;54.10;;;;;;5096859;28;20048;-66
2022/08/11 16:51:44;;;;;;;3.25;2.30;;;29.10;54.40;;;;;;5094343;28;20044;-72
2022/08/11 16:54:11;;;;;;;4.65;1.95;;;29.00;54.90;;;;;;5110948;28;20060;-73
2022/08/11 16:56:44;;;;;;;4.47;2.20;;;29.00;54.60;;;;;;5111461;28;20054;-64
2022/08/11 16:59:23;;;;;;;5.88;2.20;;;28.90;54.70;;;;;;5104436;28;20055;-65
2022/08/11 17:01:53;;;;;;;3.58;2.00;;;28.90;54.90;;;;;;5075652;28;20044;-65
2022/08/11 17:13:11;;;;;;;4.93;2.33;;;28.90;53.80;;;;;;5079895;28;20376;-65
2022/08/11 17:19:05;;;;;;;4.05;1.85;;;28.80;53.90;;;;;;5111213;28;20047;-64
2022/08/11 17:23:45;;;;;;;4.57;2.30;;;28.80;54.20;;;;;;5104577;28;20055;-64
2022/08/11 17:24:26;;;;;;;3.75;2.10;;;28.80;55.20;;;;;;5077332;28;20050;-65
2022/08/11 17:26:57;;;;;;;4.60;2.05;;;28.70;54.70;;;;;;5074410;28;20458;-64
2022/08/11 17:29:36;;;;;;;4.75;2.25;;;28.70;54.90;;;;;;5073728;28;20449;-64
2022/08/11 17:35:30;;;;;;;5.07;3.75;;;28.70;54.90;;;;;;5102742;28;20052;-65
2022/08/11 17:38:02;;;;;;;6.30;2.15;;;28.60;55.00;;;;;;5090431;28;20051;-65
2022/08/11 17:40:30;;;;;;;3.95;2.20;;;28.60;55.40;;;;;;5107070;28;20515;-64
2022/08/11 17:48:35;;;;;;;3.97;2.10;;;28.40;56.10;;;;;;5114757;28;20074;-64
2022/08/11 17:59:50;;;;;;;4.50;2.60;;;28.40;56.30;;;;;;5114747;28;20055;-64
2022/08/11 17:59:56;;;;;;;4.15;2.60;;;28.10;56.60;;;;;;5102267;28;20074;-64
2022/08/11 18:05:18;;;;;;;3.83;2.00;;;27.90;57.30;;;;;;5114656;28;20050;-64
